Salt Lake City, UT

3:27 AM MDT on July 26, 2017 (GMT -0600)
West Valley City | | Change Station

Elev 4701 ft 40.67 °N, 112.03 °W | Updated 0 second ago

Rain
Rain
70.5 °F
Feels Like 77 °F
N
8.9
Wind Variable Wind from SSE

Today
High -- | Low -- °F
--% Chance of Precip.
Yesterday
High -- | Low -- °F
Precip. -- in
Pressure 30.18 in
Visibility 5.0 miles
Clouds Scattered Clouds 5000 ft
Mostly Cloudy 9000 ft
Overcast 12000 ft
Heat Index 77 °F
Dew Point 53 °F
Humidity 54%
Rainfall 0.00 in
Snow Depth Not available.
6:19 AM 8:49 PM
Waxing Crescent, 12% visible
METAR KU42 260915Z AUTO 17006KT 5SM SCT050 BKN090 OVC120 19/19 A3018 RMK AO1 P0001 T01940193
Pressure 30.18 in
Visibility 5.0 miles
Clouds Scattered Clouds 5000 ft
Mostly Cloudy 9000 ft
Overcast 12000 ft
Heat Index 77 °F
Dew Point 53 °F
Humidity 54%
Rainfall 0.00 in
Snow Depth Not available.
6:19 AM 8:49 PM
Waxing Crescent, 12% visible
METAR KU42 260915Z AUTO 17006KT 5SM SCT050 BKN090 OVC120 19/19 A3018 RMK AO1 P0001 T01940193

Get Severe Weather Alerts

Thanks for signing up!

Be on the lookout for a verification email in your inbox.

You'll start receiving the daily forecast at 6 AM.

×

10-Day Weather Forecast

Almanac

Astronomy

Jul. 26, 2017 Rise Set
Actual Time
Civil Twilight
Nautical Twilight
Astronomical Twilight
Moon
Length of Visible Light
Length of Day
Tomorrow will be .
, % of the Moon is Illuminated

Today's Extremes

State Highs State Lows

Community

WunderPhotos

Category 6

Welcome to Category 6. This is the collective home for Weather Underground's featured writeups by Dr. Jeff Masters (right), Bob Henson (left), Chris Burt, and other regular contributors.

Nearby

Air Quality

  Air Quality AQ Index Pollutant
Not available.

Snow Depth

Station Depth Elevation

Earthquake Activity

City Distance Mag. Time & Date
Minimum magnitude displayed is 2.5.

Coastal Water Temperatures

Place Temperature

Stations

Nearby Weather Stations

Station Location Temp. Windchill Dew Point Humidity Wind Precip. Elev Updated Type
                   

Watches & Warnings

There are currently no watches in effect.